Time;durP1;ratioP1;P1;durP2;ratioP2;P2;SDS_P1;SDS_P2;PMS_P1;PMS_P2;Temp;Humidity;BMP_temperature;BMP_pressure;BME280_temperature;BME280_humidity;BME280_pressure;Samples;Min_cycle;Max_cycle;Signal;HPM_P1;HPM_P2
2022/12/06 00:01:37;;;;;;;40.25;18.42;;;3.70;99.90;;;;;;6069138;23;20030;-91
2022/12/06 00:04:06;;;;;;;33.83;17.35;;;3.60;99.90;;;;;;6068816;23;20006;-91
2022/12/06 00:06:36;;;;;;;35.05;17.15;;;3.50;99.90;;;;;;6069033;23;20010;-91
2022/12/06 00:09:02;;;;;;;34.95;18.45;;;3.90;99.90;;;;;;6094318;23;20009;-92
2022/12/06 00:11:30;;;;;;;36.75;18.17;;;4.30;99.90;;;;;;6068798;23;20421;-90
2022/12/06 00:14:04;;;;;;;36.03;18.52;;;4.30;99.90;;;;;;6093963;23;20078;-94
2022/12/06 00:16:30;;;;;;;31.92;18.27;;;3.80;99.90;;;;;;6068756;23;20006;-91
2022/12/06 00:18:58;;;;;;;36.28;18.77;;;4.20;99.90;;;;;;6068587;23;20017;-91
2022/12/06 00:21:27;;;;;;;38.70;19.27;;;3.60;99.90;;;;;;6068581;23;20089;-92
2022/12/06 00:23:54;;;;;;;;;;;3.60;99.90;;;;;;6069292;23;20234;-94
2022/12/06 00:26:21;;;;;;;40.65;17.80;;;3.50;99.90;;;;;;6093996;23;19901;-91
2022/12/06 00:28:47;;;;;;;36.45;17.90;;;3.90;99.90;;;;;;6095058;23;20006;-92
2022/12/06 00:31:16;;;;;;;36.13;18.55;;;3.50;99.90;;;;;;6094935;23;19999;-92
2022/12/06 00:33:42;;;;;;;43.25;21.33;;;3.40;99.90;;;;;;6093996;23;20054;-92
2022/12/06 00:36:15;;;;;;;36.92;19.23;;;3.50;99.90;;;;;;6093929;23;20311;-90
2022/12/06 00:38:41;;;;;;;37.83;19.35;;;3.50;99.90;;;;;;6068603;23;20058;-91
2022/12/06 00:41:16;;;;;;;41.72;19.42;;;3.90;99.90;;;;;;6092730;23;20018;-91
2022/12/06 00:43:42;;;;;;;37.15;19.20;;;3.30;99.90;;;;;;6094118;23;20439;-91
2022/12/06 00:46:11;;;;;;;40.80;19.48;;;3.40;99.90;;;;;;6068630;23;20010;-91
2022/12/06 00:48:37;;;;;;;38.60;19.30;;;3.40;99.90;;;;;;6068165;23;20006;-89
2022/12/06 00:51:03;;;;;;;37.42;18.85;;;4.70;99.90;;;;;;6093672;23;20321;-91
2022/12/06 00:53:29;;;;;;;41.17;19.75;;;3.60;99.90;;;;;;6093695;23;20006;-92
2022/12/06 00:55:55;;;;;;;40.67;20.55;;;3.90;99.90;;;;;;6068799;23;20038;-91
2022/12/06 00:58:21;;;;;;;40.97;19.20;;;3.80;99.90;;;;;;6093869;23;20003;-89
2022/12/06 01:00:47;;;;;;;38.00;19.67;;;3.50;99.90;;;;;;6094407;23;20011;-91
2022/12/06 01:03:13;;;;;;;42.65;20.00;;;4.10;99.90;;;;;;6093645;23;20081;-92
2022/12/06 01:05:44;;;;;;;41.70;20.50;;;3.50;99.90;;;;;;6068277;23;20447;-92
2022/12/06 01:08:10;;;;;;;44.20;20.35;;;3.50;99.90;;;;;;6093460;23;20007;-89
2022/12/06 01:10:37;;;;;;;38.17;20.10;;;3.90;99.90;;;;;;6068278;23;20014;-91
2022/12/06 01:13:04;;;;;;;42.20;19.92;;;5.30;99.90;;;;;;6093468;23;20495;-93
2022/12/06 01:15:30;;;;;;;40.42;20.05;;;5.90;99.90;;;;;;6068175;23;20486;-92
2022/12/06 01:17:55;;;;;;;44.35;20.05;;;5.10;99.90;;;;;;6068291;23;20011;-91
2022/12/06 01:20:21;;;;;;;39.20;19.33;;;5.40;99.90;;;;;;6093305;23;20013;-91
2022/12/06 01:22:46;;;;;;;42.80;20.10;;;5.60;99.90;;;;;;6069576;23;20038;-92
2022/12/06 01:25:12;;;;;;;40.22;19.42;;;5.60;99.90;;;;;;6093557;23;20002;-91
2022/12/06 01:27:38;;;;;;;38.42;19.95;;;5.20;99.90;;;;;;6093449;23;20028;-91
2022/12/06 01:30:05;;;;;;;42.50;20.80;;;5.90;99.90;;;;;;6068348;23;20006;-93
2022/12/06 01:32:30;;;;;;;38.20;19.17;;;3.70;99.90;;;;;;6068029;23;20010;-90
2022/12/06 01:34:56;;;;;;;41.67;20.88;;;4.80;99.90;;;;;;6093173;23;20002;-90
2022/12/06 01:37:22;;;;;;;41.58;19.58;;;5.30;99.90;;;;;;6068101;23;20007;-91
2022/12/06 01:39:47;;;;;;;38.88;20.02;;;4.80;99.90;;;;;;6094293;23;20037;-90
2022/12/06 01:42:14;;;;;;;40.92;20.25;;;5.90;99.90;;;;;;6093309;23;20040;-90
2022/12/06 01:44:51;;;;;;;43.92;20.45;;;5.00;99.90;;;;;;6067743;23;20045;-91
2022/12/06 01:47:18;;;;;;;38.55;19.73;;;3.50;99.90;;;;;;6094182;23;19998;-91
2022/12/06 01:49:55;;;;;;;39.88;19.70;;;4.00;99.90;;;;;;6093003;23;20037;-93
2022/12/06 01:52:24;;;;;;;37.70;19.30;;;6.00;99.90;;;;;;6094437;23;20006;-92
2022/12/06 01:54:51;;;;;;;43.50;19.50;;;4.60;99.90;;;;;;6092697;23;20478;-91
2022/12/06 01:57:17;;;;;;;42.78;20.65;;;4.90;99.90;;;;;;6094080;23;20110;-91
2022/12/06 01:59:44;;;;;;;38.38;20.13;;;5.60;99.90;;;;;;6092918;23;20041;-92
2022/12/06 02:02:10;;;;;;;41.08;21.02;;;4.40;99.90;;;;;;6093034;23;20017;-90
2022/12/06 02:04:36;;;;;;;43.53;20.90;;;3.40;99.90;;;;;;6067726;23;20045;-91
2022/12/06 02:07:03;;;;;;;46.25;21.08;;;5.10;99.90;;;;;;6067654;23;20037;-91
2022/12/06 02:09:29;;;;;;;43.95;20.70;;;4.50;99.90;;;;;;6067673;23;20010;-92
2022/12/06 02:11:55;;;;;;;42.78;20.77;;;4.40;99.90;;;;;;6067654;23;20506;-92
2022/12/06 02:14:26;;;;;;;44.78;21.08;;;6.10;99.90;;;;;;6068618;23;20007;-91
2022/12/06 02:17:21;;;;;;;42.60;20.33;;;4.90;99.90;;;;;;6068471;23;20065;-91
2022/12/06 02:20:09;;;;;;;39.53;20.85;;;3.40;99.90;;;;;;6094136;23;20006;-91
2022/12/06 02:23:23;;;;;;;50.08;21.95;;;3.50;99.90;;;;;;6091423;23;20018;-92
2022/12/06 02:26:07;;;;;;;42.55;21.25;;;3.50;99.90;;;;;;6094090;23;20090;-92
2022/12/06 02:29:10;;;;;;;43.28;20.60;;;5.20;99.90;;;;;;6091147;23;20010;-90
2022/12/06 02:31:43;;;;;;;42.67;20.55;;;4.00;99.90;;;;;;6092734;23;20034;-93
2022/12/06 02:34:41;;;;;;;43.17;21.20;;;3.40;99.90;;;;;;6091200;23;20003;-92
2022/12/06 02:37:35;;;;;;;43.58;21.13;;;3.50;99.90;;;;;;6067198;23;20114;-90
2022/12/06 02:40:08;;;;;;;47.53;21.63;;;3.40;99.90;;;;;;6092820;23;20018;-91
2022/12/06 02:43:12;;;;;;;41.80;20.40;;;3.60;99.90;;;;;;6092908;23;20003;-91
2022/12/06 02:45:45;;;;;;;45.78;21.63;;;3.40;99.90;;;;;;6032924;23;20062;-90
2022/12/06 02:48:13;;;;;;;48.60;22.08;;;4.50;99.90;;;;;;6058299;23;20006;-93
2022/12/06 02:50:43;;;;;;;40.65;20.65;;;5.80;99.90;;;;;;6067255;23;20010;-91
2022/12/06 02:53:14;;;;;;;49.08;22.58;;;3.70;99.90;;;;;;6066795;23;20003;-91
2022/12/06 02:55:41;;;;;;;48.78;22.05;;;5.60;99.90;;;;;;6067068;23;20014;-91
2022/12/06 02:58:07;;;;;;;47.15;21.38;;;4.50;99.90;;;;;;6092642;23;19999;-91
2022/12/06 03:00:32;;;;;;;45.25;22.52;;;5.20;99.90;;;;;;6067130;23;20021;-91
2022/12/06 03:03:23;;;;;;;45.67;21.88;;;3.60;99.90;;;;;;6091360;23;20048;-92
2022/12/06 03:06:03;;;;;;;46.47;23.20;;;3.80;99.90;;;;;;6092988;23;19999;-90
2022/12/06 03:08:31;;;;;;;46.25;22.48;;;4.00;99.90;;;;;;6090987;23;20033;-91
2022/12/06 03:11:01;;;;;;;46.72;22.05;;;3.60;99.90;;;;;;6091153;23;20061;-92
2022/12/06 03:13:52;;;;;;;44.42;22.38;;;6.10;99.90;;;;;;6067199;23;20014;-92
2022/12/06 03:16:31;;;;;;;49.85;23.08;;;3.70;99.90;;;;;;6091244;23;20007;-92
2022/12/06 03:19:07;;;;;;;45.65;22.73;;;5.00;99.90;;;;;;6092794;23;20129;-92
2022/12/06 03:21:45;;;;;;;50.38;22.30;;;4.40;99.90;;;;;;6066899;23;20019;-92
2022/12/06 03:24:13;;;;;;;49.88;23.55;;;4.70;99.90;;;;;;6067197;23;20030;-91
2022/12/06 03:26:42;;;;;;;57.38;23.85;;;4.20;99.90;;;;;;6092913;23;20002;-92
2022/12/06 03:29:10;;;;;;;49.53;23.52;;;5.30;99.90;;;;;;6092702;23;20061;-92
2022/12/06 03:31:40;;;;;;;47.83;23.53;;;5.80;99.90;;;;;;6092804;23;19998;-91
2022/12/06 03:34:15;;;;;;;46.75;23.25;;;4.90;99.90;;;;;;6092647;23;20002;-90
2022/12/06 03:36:43;;;;;;;53.80;24.60;;;3.90;99.90;;;;;;6067084;23;20006;-90
2022/12/06 03:39:10;;;;;;;52.95;25.05;;;3.90;99.90;;;;;;6067262;23;20062;-90
2022/12/06 03:41:43;;;;;;;52.33;24.23;;;5.40;99.90;;;;;;6066938;23;20014;-90
2022/12/06 03:44:08;;;;;;;58.58;26.35;;;5.00;99.90;;;;;;6092530;23;20002;-90
2022/12/06 03:46:38;;;;;;;58.03;24.58;;;4.70;99.90;;;;;;6067264;23;20033;-91
2022/12/06 03:49:10;;;;;;;59.75;25.83;;;5.30;99.90;;;;;;6067166;23;20339;-91
2022/12/06 03:51:38;;;;;;;59.42;26.08;;;4.40;99.90;;;;;;6092713;23;20082;-90
2022/12/06 03:54:06;;;;;;;63.47;28.20;;;3.70;99.90;;;;;;6067202;23;20451;-93
2022/12/06 03:56:35;;;;;;;56.20;25.80;;;4.40;99.90;;;;;;6066925;23;20093;-90
2022/12/06 03:59:02;;;;;;;;;;;3.80;99.90;;;;;;6067557;23;20010;-91
2022/12/06 04:01:28;;;;;;;66.80;28.90;;;3.80;99.90;;;;;;6091868;23;19963;-91
2022/12/06 04:03:54;;;;;;;59.50;27.70;;;3.60;99.90;;;;;;6093505;23;20344;-90
2022/12/06 04:06:19;;;;;;;58.55;28.77;;;5.10;99.90;;;;;;6067122;23;20013;-92
2022/12/06 04:08:45;;;;;;;65.45;29.80;;;4.40;99.90;;;;;;6092508;23;20005;-92
2022/12/06 04:11:11;;;;;;;67.47;29.08;;;3.90;99.90;;;;;;6066830;23;20013;-93
2022/12/06 04:13:36;;;;;;;70.47;30.38;;;4.40;99.90;;;;;;6092627;23;20074;-92
2022/12/06 04:18:09;;;;;;;60.92;30.10;;;4.20;99.90;;;;;;6066946;23;20011;-92
2022/12/06 04:18:48;;;;;;;60.03;28.10;;;4.10;99.90;;;;;;6092053;23;20093;-90
2022/12/06 04:23:58;;;;;;;55.88;25.90;;;5.20;99.90;;;;;;6094090;23;20006;-91
2022/12/06 04:26:25;;;;;;;53.05;26.63;;;4.90;99.90;;;;;;6068891;23;20010;-93
2022/12/06 04:39:52;;;;;;;55.95;25.23;;;3.80;99.90;;;;;;6093836;23;20021;-92
2022/12/06 04:45:04;;;;;;;58.45;25.13;;;4.20;99.90;;;;;;6093784;23;20058;-91
2022/12/06 04:47:31;;;;;;;51.85;23.17;;;3.70;99.90;;;;;;6094722;23;20018;-94
2022/12/06 04:49:59;;;;;;;56.90;25.75;;;3.60;99.90;;;;;;6069315;23;20010;-92
2022/12/06 04:52:27;;;;;;;54.50;23.83;;;3.90;99.90;;;;;;6068283;23;20443;-90
2022/12/06 04:54:53;;;;;;;54.03;23.63;;;4.20;99.90;;;;;;6093792;23;20002;-90
2022/12/06 04:57:19;;;;;;;;;;;4.40;99.90;;;;;;6067819;23;20351;-86
2022/12/06 04:59:45;;;;;;;;;;;3.90;99.90;;;;;;6091915;23;20361;-88
2022/12/06 05:02:12;;;;;;;;;;;3.80;99.90;;;;;;6091419;23;20895;-86
2022/12/06 05:04:37;;;;;;;;;;;3.80;99.90;;;;;;6091521;23;20355;-87
2022/12/06 05:07:03;;;;;;;;;;;5.70;99.90;;;;;;6089759;23;25090;-87
2022/12/06 05:09:28;;;;;;;;;;;4.00;99.90;;;;;;6092505;23;20858;-88
2022/12/06 05:11:54;;;;;;;;;;;3.90;99.90;;;;;;6091588;23;20684;-88
2022/12/06 05:14:19;;;;;;;;;;;4.00;99.90;;;;;;6091617;23;20356;-88
2022/12/06 05:16:45;;;;;;;;;;;5.40;99.90;;;;;;6091391;23;25133;-88
2022/12/06 05:19:11;;;;;;;;;;;4.20;99.90;;;;;;6090805;23;20370;-88
2022/12/06 05:21:37;;;;;;;;;;;4.30;99.90;;;;;;6090912;23;20383;-87
2022/12/06 05:24:02;;;;;;;;;;;4.40;99.90;;;;;;6091477;23;20385;-87
2022/12/06 05:26:28;;;;;;;;;;;4.50;99.90;;;;;;6091716;23;20366;-87
2022/12/06 05:28:54;;;;;;;;;;;4.50;99.90;;;;;;6091206;23;20353;-86
2022/12/06 05:31:20;;;;;;;;;;;4.40;99.90;;;;;;6091062;23;20381;-87
2022/12/06 05:33:46;;;;;;;;;;;5.20;99.90;;;;;;6079458;23;20357;-87
2022/12/06 05:36:14;;;;;;;;;;;4.60;99.90;;;;;;6088921;23;20357;-86
2022/12/06 05:38:39;;;;;;;;;;;4.50;99.90;;;;;;6088913;23;20345;-87
2022/12/06 05:41:05;;;;;;;;;;;5.00;99.90;;;;;;6089705;23;20437;-87
2022/12/06 05:43:31;;;;;;;;;;;5.20;99.90;;;;;;6090121;23;20658;-88
2022/12/06 05:45:56;;;;;;;;;;;4.30;99.90;;;;;;6089604;23;20449;-86
2022/12/06 05:48:22;;;;;;;1236.90;474.90;;;4.90;99.90;;;;;;6087574;23;20842;-89
2022/12/06 05:50:48;;;;;;;;;;;4.40;99.90;;;;;;6089229;23;20368;-88
2022/12/06 05:53:14;;;;;;;;;;;4.40;99.90;;;;;;6089333;23;20353;-87
2022/12/06 05:55:39;;;;;;;;;;;4.30;99.90;;;;;;6090067;23;20423;-88
2022/12/06 05:58:05;;;;;;;;;;;4.40;99.90;;;;;;6088888;23;20376;-88
2022/12/06 06:00:30;;;;;;;;;;;4.30;99.90;;;;;;6089793;23;20400;-88
2022/12/06 06:02:56;;;;;;;;;;;4.40;99.90;;;;;;6090162;23;20373;-87
2022/12/06 06:05:21;;;;;;;;;;;4.50;99.90;;;;;;6089801;23;25152;-89
2022/12/06 06:07:47;;;;;;;;;;;4.40;99.90;;;;;;6089372;23;25063;-87
2022/12/06 06:10:13;;;;;;;;;;;4.60;99.90;;;;;;6089515;23;25110;-88
2022/12/06 06:12:38;;;;;;;;;;;4.80;99.90;;;;;;6088095;23;20445;-87
2022/12/06 06:15:06;;;;;;;;;;;6.40;99.90;;;;;;6088570;23;20395;-88
2022/12/06 06:17:34;;;;;;;;;;;4.70;99.90;;;;;;6091080;23;25065;-88
2022/12/06 06:20:04;;;;;;;;;;;4.70;99.90;;;;;;6090358;23;20424;-89
2022/12/06 06:22:33;;;;;;;;;;;4.70;99.90;;;;;;6089127;23;20359;-88
2022/12/06 06:24:59;;;;;;;1369.18;558.67;;;4.70;99.90;;;;;;6089706;23;20458;-89
2022/12/06 06:27:25;;;;;;;;;;;4.70;99.90;;;;;;6089396;23;20437;-88
2022/12/06 06:29:50;;;;;;;;;;;5.20;99.90;;;;;;6087626;23;20748;-88
2022/12/06 06:32:16;;;;;;;;;;;4.80;99.90;;;;;;6089694;23;20344;-89
2022/12/06 06:34:41;;;;;;;1239.45;458.90;;;4.70;99.90;;;;;;6089608;23;20391;-89
2022/12/06 06:37:07;;;;;;;;;;;4.80;99.90;;;;;;6088647;23;25067;-89
2022/12/06 06:39:32;;;;;;;1275.80;472.40;;;5.10;99.90;;;;;;6090991;23;20935;-88
2022/12/06 06:41:58;;;;;;;;;;;4.70;99.90;;;;;;6089809;23;20336;-89
2022/12/06 06:44:23;;;;;;;;;;;5.50;99.90;;;;;;6089202;23;20359;-89
2022/12/06 06:46:49;;;;;;;;;;;4.80;99.90;;;;;;6088843;23;25065;-88
2022/12/06 06:49:16;;;;;;;1328.13;536.07;;;5.80;99.90;;;;;;6089369;23;20368;-87
2022/12/06 06:51:44;;;;;;;;;;;4.60;99.90;;;;;;6089301;23;20485;-88
2022/12/06 06:54:11;;;;;;;;;;;4.60;99.90;;;;;;6061586;23;20443;-88
2022/12/06 06:56:37;;;;;;;;;;;4.60;99.90;;;;;;6087813;23;20350;-87
2022/12/06 06:59:02;;;;;;;;;;;4.70;99.90;;;;;;6090187;23;20356;-90
2022/12/06 07:01:28;;;;;;;;;;;4.70;99.90;;;;;;6088725;23;20443;-89
2022/12/06 07:03:54;;;;;;;;;;;4.70;99.90;;;;;;6087273;23;20447;-87
2022/12/06 07:06:19;;;;;;;;;;;4.70;99.90;;;;;;6088840;23;20348;-90
2022/12/06 07:08:45;;;;;;;;;;;5.80;99.90;;;;;;6090129;23;20383;-88
2022/12/06 07:11:11;;;;;;;;;;;4.70;99.90;;;;;;6090214;23;20343;-88
2022/12/06 07:13:37;;;;;;;;;;;4.80;99.90;;;;;;6097001;23;20354;-88
2022/12/06 07:16:03;;;;;;;;;;;5.00;99.90;;;;;;6087808;23;20458;-88
2022/12/06 07:18:29;;;;;;;;;;;4.60;99.90;;;;;;6082122;23;20384;-88
2022/12/06 07:20:59;;;;;;;;;;;4.60;99.90;;;;;;6059251;23;25108;-89
2022/12/06 07:23:24;;;;;;;;;;;4.60;99.90;;;;;;6060014;23;25068;-88
2022/12/06 07:26:05;;;;;;;;;;;4.70;99.90;;;;;;6060330;23;20394;-89
2022/12/06 07:28:30;;;;;;;;;;;4.60;99.90;;;;;;6058850;23;20356;-87
2022/12/06 07:30:56;;;;;;;;;;;4.40;99.90;;;;;;6083222;23;20448;-89
2022/12/06 07:33:21;;;;;;;;;;;5.70;99.90;;;;;;6060275;23;20465;-90
2022/12/06 07:35:51;;;;;;;;;;;5.50;99.90;;;;;;6060900;23;20778;-88
2022/12/06 07:38:17;;;;;;;;;;;4.40;99.90;;;;;;6060235;23;20338;-89
2022/12/06 07:40:43;;;;;;;;;;;4.70;99.90;;;;;;6058224;23;20398;-86
2022/12/06 07:45:52;;;;;;;;;;;4.30;99.90;;;;;;6060078;23;20374;-89
2022/12/06 07:48:19;;;;;;;;;;;4.50;99.90;;;;;;6058493;23;20354;-89
2022/12/06 07:50:46;;;;;;;;;;;4.80;99.90;;;;;;6059664;23;20459;-89
2022/12/06 07:53:11;;;;;;;;;;;4.20;99.90;;;;;;6060975;23;25149;-89
2022/12/06 07:55:37;;;;;;;;;;;5.40;99.90;;;;;;6061323;23;25104;-89
2022/12/06 07:58:02;;;;;;;;;;;4.40;99.90;;;;;;6059575;23;20375;-87
2022/12/06 08:00:28;;;;;;;;;;;6.40;99.90;;;;;;6062038;23;25084;-89
2022/12/06 08:02:53;;;;;;;;;;;5.60;99.90;;;;;;6061770;23;25073;-90
2022/12/06 08:05:19;;;;;;;;;;;5.60;99.90;;;;;;6060874;23;20388;-90
2022/12/06 08:07:44;;;;;;;;;;;4.60;99.90;;;;;;6062236;23;20352;-87
2022/12/06 08:10:10;;;;;;;;;;;5.60;99.90;;;;;;6060585;23;20393;-90
2022/12/06 08:12:36;;;;;;;;;;;4.40;99.90;;;;;;6037583;23;20340;-88
2022/12/06 08:15:01;;;;;;;;;;;4.40;99.90;;;;;;6061975;23;25074;-88
2022/12/06 08:17:28;;;;;;;;;;;4.80;99.90;;;;;;6074092;23;25102;-89
2022/12/06 08:19:54;;;;;;;;;;;6.40;99.90;;;;;;6088773;23;20888;-89
2022/12/06 08:22:19;;;;;;;;;;;5.10;99.90;;;;;;6090821;23;20368;-87
2022/12/06 08:24:45;;;;;;;;;;;6.10;99.90;;;;;;6090649;23;20344;-90
2022/12/06 08:27:11;;;;;;;;;;;4.70;99.90;;;;;;6090786;23;20690;-89
2022/12/06 08:29:36;;;;;;;;;;;5.60;99.90;;;;;;6091665;23;20862;-89
2022/12/06 08:32:02;;;;;;;;;;;4.50;99.90;;;;;;6065446;23;20357;-88
2022/12/06 08:34:28;;;;;;;;;;;4.60;99.90;;;;;;6089117;23;20467;-91
2022/12/06 08:36:53;;;;;;;;;;;5.70;99.90;;;;;;6089812;23;20366;-89
2022/12/06 08:39:19;;;;;;;;;;;4.80;99.90;;;;;;6090739;23;20825;-89
2022/12/06 08:42:02;;;;;;;;;;;4.90;99.90;;;;;;6090269;23;20712;-89
2022/12/06 08:44:29;;;;;;;;;;;4.90;99.90;;;;;;6089755;23;20367;-90
2022/12/06 08:46:55;;;;;;;;;;;5.60;99.90;;;;;;6089619;23;20346;-90
2022/12/06 08:49:21;;;;;;;;;;;5.10;99.90;;;;;;6088724;23;25070;-89
2022/12/06 08:51:47;;;;;;;;;;;4.90;99.90;;;;;;6090289;23;20505;-89
2022/12/06 08:54:14;;;;;;;;;;;5.20;99.90;;;;;;6087741;23;20468;-88
2022/12/06 08:56:39;;;;;;;;;;;5.40;99.90;;;;;;6088348;23;20406;-87
2022/12/06 08:59:05;;;;;;;1419.05;599.00;;;5.20;99.90;;;;;;6090333;23;20356;-88
2022/12/06 09:01:32;;;;;;;1129.03;387.90;;;5.00;99.90;;;;;;6064472;23;20394;-89
2022/12/06 09:03:58;;;;;;;;;;;5.00;99.90;;;;;;6090186;23;20448;-89
2022/12/06 09:06:23;;;;;;;;;;;6.00;99.90;;;;;;6088386;23;20678;-89
2022/12/06 09:08:49;;;;;;;;;;;5.00;99.90;;;;;;6089494;23;20870;-88
2022/12/06 09:11:15;;;;;;;;;;;5.20;99.90;;;;;;6087910;23;25130;-89
2022/12/06 09:13:41;;;;;;;;;;;5.00;99.90;;;;;;6089970;23;25075;-88
2022/12/06 09:16:07;;;;;;;;;;;5.60;99.90;;;;;;6088798;23;20406;-88
2022/12/06 09:18:33;;;;;;;;;;;5.20;99.90;;;;;;6090322;23;20409;-90
2022/12/06 09:21:03;;;;;;;1084.20;533.50;;;5.40;99.90;;;;;;6089982;23;25101;-88
2022/12/06 09:23:28;;;;;;;;;;;5.50;99.90;;;;;;6089043;23;20365;-90
2022/12/06 09:25:54;;;;;;;1152.60;613.15;;;6.50;99.90;;;;;;6090178;23;20375;-88
2022/12/06 09:28:19;;;;;;;1169.10;395.40;;;6.10;99.90;;;;;;6090585;23;20341;-90
2022/12/06 09:30:45;;;;;;;;;;;5.50;99.90;;;;;;6063376;23;20852;-89
2022/12/06 09:33:10;;;;;;;;;;;5.90;99.90;;;;;;6089534;23;20399;-90
2022/12/06 09:35:36;;;;;;;;;;;5.50;99.90;;;;;;6091002;23;25108;-90
2022/12/06 09:38:02;;;;;;;;;;;5.50;99.90;;;;;;6089355;23;20358;-90
2022/12/06 09:40:28;;;;;;;;;;;5.70;99.90;;;;;;6087552;23;25089;-89
2022/12/06 09:42:56;;;;;;;;;;;5.30;99.90;;;;;;6089472;23;20907;-88
2022/12/06 09:45:21;;;;;;;;;;;5.40;99.90;;;;;;6090579;23;20354;-88
2022/12/06 09:47:47;;;;;;;;;;;5.30;99.90;;;;;;6088743;23;25083;-88
2022/12/06 09:50:22;;;;;;;;;;;5.30;99.90;;;;;;6089102;23;20330;-87
2022/12/06 09:52:56;;;;;;;;;;;5.20;99.90;;;;;;6088546;23;20349;-88
2022/12/06 09:55:21;;;;;;;;;;;5.00;99.90;;;;;;6090331;23;20335;-88
2022/12/06 09:57:47;;;;;;;;;;;4.90;99.90;;;;;;6090205;23;25064;-87
2022/12/06 10:00:14;;;;;;;;;;;4.90;99.90;;;;;;6089093;23;20434;-87
2022/12/06 10:02:52;;;;;;;;;;;5.00;99.90;;;;;;6089676;23;20408;-88
2022/12/06 10:05:17;;;;;;;;;;;5.00;99.90;;;;;;6089487;23;25110;-88
2022/12/06 10:07:48;;;;;;;;;;;4.90;99.90;;;;;;6089289;23;20464;-86
2022/12/06 10:10:32;;;;;;;;;;;4.90;99.90;;;;;;6088948;23;20733;-87
2022/12/06 10:13:32;;;;;;;1253.00;465.35;;;4.90;99.90;;;;;;6089470;23;20344;-88
2022/12/06 10:16:04;;;;;;;;;;;5.00;99.90;;;;;;6056042;23;20834;-88
2022/12/06 10:18:30;;;;;;;;;;;5.50;99.90;;;;;;6088680;23;20445;-89
2022/12/06 10:21:04;;;;;;;;;;;5.70;99.90;;;;;;6087993;23;25119;-89
2022/12/06 10:23:42;;;;;;;;;;;5.50;99.90;;;;;;6088901;23;25105;-89
2022/12/06 10:26:27;;;;;;;1274.00;471.40;;;5.50;99.90;;;;;;6086234;23;20458;-89
2022/12/06 10:28:52;;;;;;;;;;;5.40;99.90;;;;;;6089339;23;20360;-90
2022/12/06 10:31:22;;;;;;;;;;;5.40;99.90;;;;;;6089276;23;25070;-89
2022/12/06 10:33:52;;;;;;;;;;;5.60;99.90;;;;;;6089119;23;20359;-89
2022/12/06 10:36:36;;;;;;;;;;;5.70;99.90;;;;;;6088826;23;20415;-87
2022/12/06 10:39:04;;;;;;;;;;;5.80;99.90;;;;;;6088924;23;20888;-90
2022/12/06 10:41:32;;;;;;;;;;;5.90;99.90;;;;;;6087425;23;20923;-89
2022/12/06 10:44:03;;;;;;;;;;;6.00;99.90;;;;;;6087885;23;20663;-88
2022/12/06 10:47:02;;;;;;;;;;;6.00;99.90;;;;;;6088014;23;20379;-90
2022/12/06 10:49:34;;;;;;;;;;;6.10;99.90;;;;;;6087392;23;20379;-88
2022/12/06 10:52:11;;;;;;;;;;;6.20;99.90;;;;;;6089218;23;20653;-90
2022/12/06 10:54:42;;;;;;;;;;;6.10;99.90;;;;;;6089797;23;20366;-89
2022/12/06 10:57:17;;;;;;;1061.70;424.50;;;6.10;99.90;;;;;;6088524;23;20340;-88
2022/12/06 10:59:50;;;;;;;;;;;6.20;99.90;;;;;;6086592;23;20687;-88
2022/12/06 11:02:40;;;;;;;1260.57;460.20;;;5.90;99.90;;;;;;6089281;23;20336;-87
2022/12/06 11:05:20;;;;;;;1234.32;438.95;;;5.90;99.90;;;;;;6090413;23;20355;-90
2022/12/06 11:07:48;;;;;;;1279.68;478.10;;;5.80;99.90;;;;;;6085680;23;20673;-89
2022/12/06 11:10:25;;;;;;;;;;;5.80;99.90;;;;;;6090622;23;20013;-89
2022/12/06 11:13:00;;;;;;;;;;;5.80;99.90;;;;;;6090083;23;20349;-87
2022/12/06 11:15:32;;;;;;;;;;;5.70;99.90;;;;;;6089230;23;20437;-89
2022/12/06 11:18:12;;;;;;;;;;;5.70;99.90;;;;;;6083492;23;20352;-90
2022/12/06 11:20:38;;;;;;;;;;;5.70;99.90;;;;;;6083521;23;20393;-89
2022/12/06 11:23:16;;;;;;;;;;;5.90;99.90;;;;;;6060675;23;20394;-90
2022/12/06 11:25:47;;;;;;;;;;;5.70;99.90;;;;;;6060860;23;20368;-88
2022/12/06 11:28:25;;;;;;;;;;;5.60;99.90;;;;;;6060240;23;20357;-88
2022/12/06 11:30:52;;;;;;;;;;;5.50;99.90;;;;;;6059829;23;20359;-88
2022/12/06 11:33:19;;;;;;;;;;;5.90;99.90;;;;;;6083407;23;20432;-88
2022/12/06 11:35:46;;;;;;;;;;;5.70;99.90;;;;;;6063697;23;20348;-88
2022/12/06 11:38:13;;;;;;;;;;;5.60;99.90;;;;;;6066580;23;20824;-89
2022/12/06 11:40:46;;;;;;;;;;;5.70;99.90;;;;;;6061439;23;25079;-88
2022/12/06 11:43:15;;;;;;;;;;;5.60;99.90;;;;;;6061635;23;25072;-89
2022/12/06 11:45:42;;;;;;;;;;;7.00;99.90;;;;;;6062111;23;20431;-88
2022/12/06 11:48:24;;;;;;;;;;;5.90;99.90;;;;;;6062669;23;20349;-90
2022/12/06 11:50:51;;;;;;;;;;;5.50;99.90;;;;;;6084573;23;20367;-89
2022/12/06 11:53:40;;;;;;;1227.25;450.50;;;5.60;99.90;;;;;;6062310;23;20338;-89
2022/12/06 11:56:22;;;;;;;;;;;5.80;99.90;;;;;;6060921;23;20414;-88
2022/12/06 11:59:04;;;;;;;;;;;5.90;99.90;;;;;;6061319;23;20435;-90
2022/12/06 12:01:43;;;;;;;;;;;5.90;99.90;;;;;;6083689;23;20427;-87
2022/12/06 12:04:22;;;;;;;;;;;5.90;99.90;;;;;;6062863;23;20441;-89
2022/12/06 12:06:50;;;;;;;;;;;5.90;99.90;;;;;;6084322;23;20371;-90
2022/12/06 12:09:18;;;;;;;;;;;5.90;99.90;;;;;;6061521;23;20363;-87
2022/12/06 12:11:52;;;;;;;;;;;5.80;99.90;;;;;;6061941;23;20413;-89
2022/12/06 12:14:23;;;;;;;;;;;6.00;99.90;;;;;;6084581;23;20427;-88
2022/12/06 12:16:53;;;;;;;;;;;6.30;99.90;;;;;;6066169;23;21085;-89
2022/12/06 12:19:34;;;;;;;;;;;6.00;99.90;;;;;;6090105;23;20354;-88
2022/12/06 12:22:12;;;;;;;;;;;6.00;99.90;;;;;;6089581;23;25115;-90
2022/12/06 12:24:41;;;;;;;;;;;6.50;99.90;;;;;;6091687;23;20857;-88
2022/12/06 12:27:39;;;;;;;;;;;5.90;99.90;;;;;;6091059;23;20342;-89
2022/12/06 12:30:16;;;;;;;;;;;6.00;99.90;;;;;;6041471;23;20536;-89
2022/12/06 12:32:42;;;;;;;;;;;6.00;99.90;;;;;;6089083;23;20422;-90
2022/12/06 12:35:17;;;;;;;;;;;6.00;99.90;;;;;;6091424;23;20391;-87
2022/12/06 12:37:43;;;;;;;;;;;5.90;99.90;;;;;;6089579;23;20440;-88
2022/12/06 12:40:20;;;;;;;;;;;5.90;99.90;;;;;;6091288;23;20515;-88
2022/12/06 12:42:46;;;;;;;1044.97;364.25;;;5.80;99.90;;;;;;6090648;23;20437;-88
2022/12/06 12:45:16;;;;;;;;;;;6.00;99.90;;;;;;6066955;23;20041;-89
2022/12/06 12:47:54;;;;;;;;;;;6.00;99.90;;;;;;6089181;23;20487;-90
2022/12/06 12:50:22;;;;;;;;;;;6.00;99.90;;;;;;6090267;23;20799;-90
2022/12/06 12:52:49;;;;;;;;;;;6.10;99.90;;;;;;6089503;23;20350;-88
2022/12/06 12:55:16;;;;;;;;;;;6.10;99.90;;;;;;6089064;23;20914;-89
2022/12/06 12:57:43;;;;;;;;;;;6.20;99.90;;;;;;6090654;23;20336;-89
2022/12/06 13:00:17;;;;;;;;;;;7.20;99.90;;;;;;6090514;23;20407;-88
2022/12/06 13:02:43;;;;;;;;;;;6.00;99.90;;;;;;6089647;23;20386;-90
2022/12/06 13:05:16;;;;;;;;;;;6.30;99.90;;;;;;6091496;23;20356;-90
2022/12/06 13:07:42;;;;;;;1218.07;420.40;;;6.10;99.90;;;;;;6091166;23;20439;-89
2022/12/06 13:10:20;;;;;;;;;;;6.10;99.90;;;;;;6068432;23;20454;-89
2022/12/06 13:12:54;;;;;;;;;;;6.10;99.90;;;;;;6089776;23;25079;-89
2022/12/06 13:15:24;;;;;;;;;;;6.10;99.90;;;;;;6090618;23;20348;-90
2022/12/06 13:17:51;;;;;;;;;;;6.10;99.90;;;;;;6089836;23;25072;-90
2022/12/06 13:20:22;;;;;;;;;;;6.10;99.90;;;;;;6090445;23;20374;-90
2022/12/06 13:22:49;;;;;;;;;;;6.20;99.90;;;;;;6088808;23;20401;-90
2022/12/06 13:25:15;;;;;;;1269.60;435.60;;;6.10;99.90;;;;;;6089734;23;25073;-90
2022/12/06 13:27:45;;;;;;;;;;;6.20;99.90;;;;;;6088823;23;20364;-87
2022/12/06 13:30:15;;;;;;;;;;;6.40;99.90;;;;;;6089915;23;20829;-87
2022/12/06 13:32:43;;;;;;;;;;;6.30;99.90;;;;;;6089388;23;20840;-88
2022/12/06 13:35:18;;;;;;;;;;;6.30;99.90;;;;;;6087762;23;20466;-89
2022/12/06 13:37:45;;;;;;;;;;;6.30;99.90;;;;;;6089412;23;20370;-90
2022/12/06 13:40:29;;;;;;;;;;;6.30;99.90;;;;;;6088962;23;20436;-90
2022/12/06 13:42:55;;;;;;;1349.50;471.30;;;6.30;99.90;;;;;;6089101;23;25094;-91
2022/12/06 13:45:36;;;;;;;1263.60;417.77;;;6.50;99.90;;;;;;6088508;23;20350;-86
2022/12/06 13:48:01;;;;;;;;;;;6.60;99.90;;;;;;6087868;23;20379;-87
2022/12/06 13:50:28;;;;;;;;;;;6.70;99.90;;;;;;6087322;23;20823;-88
2022/12/06 13:52:53;;;;;;;;;;;6.70;99.90;;;;;;6088776;23;20469;-87
2022/12/06 13:55:25;;;;;;;;;;;6.50;99.90;;;;;;6087843;23;25077;-87
2022/12/06 13:57:55;;;;;;;;;;;6.60;99.90;;;;;;6089138;23;20358;-90
2022/12/06 14:00:27;;;;;;;;;;;6.50;99.90;;;;;;6087111;23;20370;-90
2022/12/06 14:02:57;;;;;;;;;;;6.50;99.90;;;;;;6088997;23;20364;-88
2022/12/06 14:05:41;;;;;;;;;;;6.50;99.90;;;;;;6089850;23;20377;-88
2022/12/06 14:08:13;;;;;;;;;;;6.50;99.90;;;;;;6089566;23;20883;-88
2022/12/06 14:10:38;;;;;;;;;;;6.50;99.90;;;;;;6090378;23;20357;-88
2022/12/06 14:13:04;;;;;;;;;;;6.60;99.90;;;;;;6089097;23;20367;-90